KPLN/PLN METAR and TAF weather

Enter ICAO airport designator
Station Type Date Time Source
KPLN METAR 2020/09/25 19:54 UTC NOAA

KPLN 251954Z AUTO 21009G19KT 10SM CLR 26/14 A2989 RMK AO2 SLP118 T02560139


Station Type Date Time Source
KPLN Decoded METAR 2020/09/25 19:54 UTC NOAA

PELLSTON REGIONAL AIRPORT, MI, United States (KPLN) 45-34N 084-48W 217M
Sep 25, 2020 - 03:54 PM EDT / 2020.09.25 1954 UTC
Wind: from the SSW (210 degrees) at 10 MPH (9 KT) gusting to 22 MPH (19 KT):0
Visibility: 10 mile(s):0
Sky conditions: clear
Temperature: 78.1 F (25.6 C)
Dew Point: 57.0 F (13.9 C)
Relative Humidity: 48%
Pressure (altimeter): 29.89 in. Hg (1012 hPa)
ob: KPLN 251954Z AUTO 21009G19KT 10SM CLR 26/14 A2989 RMK AO2 SLP118 T02560139
cycle: 20

Station Type Date Time Source
KPLN TAF 2020/09/25 18:57 UTC NOAA

TAF KPLN 251755Z 2518/2618 20008G15KT P6SM BKN050
FM252000 23011G22KT P6SM FEW060
FM260100 20006KT P6SM FEW200 WS016/20035KT
FM260500 20012G22KT P6SM BKN180 WS016/21040KT
FM261000 21011G21KT P6SM VCTS OVC050CB WS016/22040KT
FM261200 22009KT P6SM BKN040 WS016/22035KT
FM261400 22009KT P6SM BKN029

Example: see airport list